Latest Weather Observations for Yanco

IDN60801

Issued at 7:04 pm EST Tuesday 7 July 2015 (issued every 30 minutes, with the page automatically refreshed every 10 minutes)

About weather observations | Map of weather stations | Latest weather observations for NSW | Other Formats
Station Details ID: 074037 Name: YANCO AGRICULTURAL INSTITUTE Lat: -34.62 Lon: 146.43 Height: 164.0 m
Data from the previous 72 hours. | See also: Recent months at Yanco
Date/Time
EST
Temp
°C
App
Temp
°C
Dew
Point
Rel
Hum
%
Delta-T
°C
Wind Press
QNH
hPa
Press
MSL
hPa
Rain
since 9 am
mm
Dir
 
Spd
km/h
Gust
km/h
Spd
kts
Gust
kts
07/07:00pm 10.6 8.8 7.3 80 1.6 ESE 6 7 3 4 - - 0.0
07/06:30pm 11.0 9.1 7.5 79 1.7 ESE 7 9 4 5 - - 0.0
07/06:00pm 11.7 10.0 7.6 76 2.0 ESE 6 7 3 4 - - 0.0
07/05:30pm 12.4 11.1 7.7 73 2.3 E 4 6 2 3 - - 0.0
07/05:00pm 12.4 11.2 8.1 75 2.1 E 4 4 2 2 - - 0.0
07/04:30pm 12.7 11.6 8.6 76 2.1 E 4 6 2 3 - - 0.0
07/04:00pm 12.8 11.8 8.7 76 2.1 ESE 4 6 2 3 - - 0.0
07/03:30pm 12.9 11.7 8.0 72 2.4 SSE 4 6 2 3 - - 0.0
07/03:00pm 13.1 12.0 8.6 74 2.3 SSE 4 6 2 3 - - 0.0
07/02:30pm 13.8 12.7 8.4 70 2.7 SE 4 6 2 3 - - 0.0
07/02:00pm 13.0 11.9 8.5 74 2.3 ESE 4 6 2 3 - - 0.0
07/01:30pm 13.0 11.7 7.7 70 2.6 SE 4 6 2 3 - - 0.0
07/01:00pm 14.1 13.1 8.9 71 2.7 E 4 7 2 4 - - 0.0
07/12:30pm 13.1 11.5 8.0 71 2.5 ENE 6 7 3 4 - - 0.0
07/12:00pm 12.7 11.9 8.0 73 2.3 SSE 2 6 1 3 - - 0.0
07/11:30am 12.7 12.0 8.4 75 2.2 WSW 2 6 1 3 - - 0.0
07/11:00am 12.2 11.3 7.9 75 2.1 N 2 4 1 2 - - 0.0
07/10:30am 12.2 11.4 8.3 77 1.9 NW 2 4 1 2 - - 0.0
07/10:00am 10.9 9.3 7.8 81 1.5 NNW 6 7 3 4 - - 0.0
07/09:30am 10.3 8.7 8.2 87 1.0 NNW 6 9 3 5 - - 0.0
07/09:00am 9.5 8.4 8.3 92 0.6 ENE 4 6 2 3 - - 0.8
07/08:30am 8.6 7.3 7.5 93 0.5 ENE 4 6 2 3 - - 0.8
07/08:00am 7.3 4.4 6.4 94 0.4 E 11 13 6 7 - - 0.8
07/07:30am 6.8 3.9 6.4 97 0.2 E 11 13 6 7 - - 0.8
07/07:00am 6.8 3.9 6.5 98 0.1 SE 11 13 6 7 - - 0.8
07/06:30am 7.1 4.3 6.8 98 0.1 SE 11 13 6 7 - - 0.8
07/06:00am 7.5 5.5 7.2 98 0.1 SE 7 9 4 5 - - 0.8
07/05:30am 7.5 5.5 6.9 96 0.3 ESE 7 11 4 6 - - 0.8
07/05:00am 7.6 6.9 7.0 96 0.3 CALM 0 0 0 0 - - 0.8
07/04:30am 8.0 6.6 7.1 94 0.4 NE 4 6 2 3 - - 0.8
07/04:00am 8.2 6.4 7.0 92 0.6 NNE 6 6 3 3 - - 0.6
07/03:30am 8.2 6.3 6.8 91 0.7 N 6 7 3 4 - - 0.6
07/03:00am 8.1 6.2 6.6 90 0.7 N 6 9 3 5 - - 0.6
07/02:30am 8.1 6.0 6.7 91 0.7 N 7 11 4 6 - - 0.6
07/02:00am 8.1 5.6 6.7 91 0.7 NNE 9 13 5 7 - - 0.6
07/01:30am 7.8 5.3 6.6 92 0.6 N 9 11 5 6 - - 0.4
07/01:00am 8.4 6.4 6.2 86 1.0 SSE 6 9 3 5 - - 0.2
07/12:30am 7.6 6.1 5.2 85 1.1 NNE 2 6 1 3 - - 0.0
07/12:00am 7.5 4.7 5.1 85 1.1 ENE 9 11 5 6 - - 0.0
 
Date/Time
EST
Temp
°C
App
Temp
°C
Dew
Point
Rel
Hum
%
Delta-T
°C
Wind Press
QNH
hPa
Press
MSL
hPa
Rain
since 9 am
mm
Dir
 
Spd
km/h
Gust
km/h
Spd
kts
Gust
kts
06/11:30pm 8.3 5.2 5.6 83 1.2 E 11 13 6 7 - - 0.0
06/11:00pm 8.3 5.3 5.8 84 1.1 ENE 11 13 6 7 - - 0.0
06/10:30pm 9.0 6.4 5.9 81 1.4 ENE 9 11 5 6 - - 0.0
06/10:00pm 8.9 5.6 6.2 83 1.3 E 13 15 7 8 - - 0.0
06/09:30pm 9.5 8.2 6.2 80 1.5 NE 2 4 1 2 - - 0.0
06/09:00pm 9.2 7.0 6.3 82 1.4 ENE 7 11 4 6 - - 0.0
06/08:30pm 9.4 6.5 6.5 82 1.4 E 11 13 6 7 - - 0.0
06/08:00pm 9.9 7.3 6.3 78 1.7 ENE 9 11 5 6 - - 0.0
06/07:30pm 10.0 7.8 6.3 78 1.7 E 7 9 4 5 - - 0.0
06/07:00pm 10.4 8.2 6.4 76 1.9 E 7 9 4 5 - - 0.0
06/06:30pm 10.8 8.7 6.0 72 2.2 ESE 6 7 3 4 - - 0.0
06/06:00pm 11.0 9.3 5.7 70 2.5 W 4 4 2 2 - - 0.0
06/05:30pm 11.0 10.1 6.0 71 2.3 CALM 0 0 0 0 - - 0.0
06/05:00pm 11.3 10.6 6.8 74 2.2 CALM 0 0 0 0 - - 0.0
06/04:30pm 11.8 10.8 5.4 65 3.0 CALM 0 0 0 0 - - 0.0
06/04:00pm 12.1 10.3 5.3 63 3.2 W 4 7 2 4 - - 0.0
06/03:30pm 12.5 10.1 5.2 61 3.4 WNW 7 9 4 5 - - 0.0
06/03:00pm 12.9 10.4 4.6 57 3.8 WNW 7 13 4 7 - - 0.0
06/02:30pm 13.3 11.1 5.2 58 3.8 NW 6 15 3 8 - - 0.0
06/02:00pm 12.3 9.8 3.8 56 3.8 W 6 11 3 6 - - 0.0
06/01:30pm 12.1 9.1 3.9 57 3.7 NW 9 15 5 8 - - 0.0
06/01:00pm 11.9 9.9 4.6 61 3.3 NNW 4 9 2 5 - - 0.0
06/12:30pm 11.1 8.6 3.9 61 3.2 NNW 6 11 3 6 - - 0.0
06/12:00pm 10.7 8.1 4.4 65 2.8 NNW 7 11 4 6 - - 0.0
06/11:30am 10.4 8.6 5.6 72 2.2 NNW 4 7 2 4 - - 0.0
06/11:00am 9.3 6.8 4.7 73 2.1 NNW 7 11 4 6 - - 0.0
06/10:30am 8.4 6.0 5.3 81 1.4 NNW 7 11 4 6 - - 0.0
06/10:00am 7.8 5.6 5.1 83 1.2 N 6 9 3 5 - - 0.0
06/09:30am 6.7 4.5 5.5 92 0.5 NNE 6 9 3 5 - - 0.0
06/09:00am 4.7 3.3 3.8 94 0.4 CALM 0 0 0 0 - - 0.2
06/08:30am 4.8 3.2 4.4 97 0.2 ENE 2 4 1 2 - - 0.2
06/08:00am 3.8 1.7 3.7 99 0.0 ENE 4 4 2 2 - - 0.2
06/07:30am 3.6 1.4 3.5 99 0.0 ENE 4 6 2 3 - - 0.2
06/07:00am 3.2 1.7 3.1 99 0.0 CALM 0 0 0 0 - - 0.2
06/06:30am 2.7 1.1 2.6 99 0.0 CALM 0 0 0 0 - - 0.2
06/06:00am 3.4 1.2 3.3 99 0.0 ENE 4 4 2 2 - - 0.2
06/05:30am 2.2 0.5 1.8 97 0.2 CALM 0 2 0 1 - - 0.2
06/05:00am 2.8 1.2 2.2 96 0.2 CALM 0 0 0 0 - - 0.2
06/04:30am 3.8 1.9 3.1 95 0.3 ENE 2 2 1 1 - - 0.2
06/04:00am 4.5 3.1 3.5 93 0.4 CALM 0 0 0 0 - - 0.2
06/03:30am 4.6 2.8 3.6 93 0.4 ENE 2 2 1 1 - - 0.2
06/03:00am 4.3 2.5 3.4 94 0.4 ENE 2 4 1 2 - - 0.2
06/02:30am 3.7 1.4 2.8 94 0.4 ENE 4 6 2 3 - - 0.2
06/02:00am 3.8 1.5 2.6 92 0.5 ENE 4 4 2 2 - - 0.2
06/01:30am 4.0 1.8 3.3 95 0.3 ENE 4 6 2 3 - - 0.0
06/01:00am 4.5 2.1 2.4 86 0.9 ENE 4 7 2 4 - - 0.0
06/12:30am 5.0 2.3 3.5 90 0.6 ENE 7 9 4 5 - - 0.0
06/12:00am 5.3 1.9 4.1 92 0.5 E 11 11 6 6 - - 0.0
 
Date/Time
EST
Temp
°C
App
Temp
°C
Dew
Point
Rel
Hum
%
Delta-T
°C
Wind Press
QNH
hPa
Press
MSL
hPa
Rain
since 9 am
mm
Dir
 
Spd
km/h
Gust
km/h
Spd
kts
Gust
kts
05/11:30pm 4.3 2.0 3.0 91 0.5 NNE 4 6 2 3 - - 0.0
05/11:00pm 6.5 3.9 4.3 86 1.0 ESE 7 9 4 5 - - 0.0
05/10:30pm 6.7 4.4 4.7 87 0.9 E 6 7 3 4 - - 0.0
05/10:00pm 7.4 5.9 4.9 84 1.1 WNW 2 2 1 1 - - 0.0
05/09:30pm 6.1 4.7 3.8 85 1.0 CALM 0 0 0 0 - - 0.0
05/09:00pm 6.3 4.9 3.6 83 1.2 CALM 0 0 0 0 - - 0.0
05/08:30pm 6.6 5.1 3.2 79 1.4 CALM 0 0 0 0 - - 0.0
05/08:00pm 7.9 6.6 4.1 77 1.7 CALM 0 0 0 0 - - 0.0
05/07:30pm 6.8 5.5 4.3 84 1.1 CALM 0 0 0 0 - - 0.0
05/07:00pm 8.0 5.9 4.0 76 1.7 WNW 4 6 2 3 - - 0.0
05/06:30pm 8.9 7.6 4.3 73 2.0 CALM 0 0 0 0 - - 0.0
05/06:00pm 9.8 8.7 5.0 72 2.2 CALM 0 2 0 1 - - 0.0
05/05:30pm 10.3 8.9 5.3 71 2.3 WNW 2 4 1 2 - - 0.0
05/05:00pm 11.1 10.0 5.0 66 2.8 CALM 0 0 0 0 - - 0.0
05/04:30pm 10.9 9.6 4.1 63 3.1 CALM 0 4 0 2 - - 0.0
05/04:00pm 11.4 9.8 4.6 63 3.1 WNW 2 6 1 3 - - 0.0
05/03:30pm 11.2 9.5 4.2 62 3.2 WNW 2 6 1 3 - - 0.0
05/03:00pm 12.8 11.3 4.8 58 3.7 WNW 2 6 1 3 - - 0.0
05/02:30pm 12.0 9.5 4.7 61 3.4 NW 7 11 4 6 - - 0.0
05/02:00pm 11.5 9.0 4.5 62 3.2 NNE 7 13 4 7 - - 0.0
05/01:30pm 11.6 9.6 4.3 61 3.3 NNE 4 9 2 5 - - 0.0
05/01:00pm 11.3 9.2 4.1 61 3.2 N 4 9 2 5 - - 0.0
05/12:30pm 11.1 8.6 3.9 61 3.2 NE 6 9 3 5 - - 0.0
05/12:00pm 11.3 9.5 3.3 58 3.5 N 2 6 1 3 - - 0.0
05/11:30am 10.6 9.3 3.9 63 3.0 CALM 0 0 0 0 - - 0.0
05/11:00am 9.5 8.1 5.3 75 1.9 ESE 2 4 1 2 - - 0.0
05/10:30am 9.2 7.8 3.8 69 2.4 CALM 0 0 0 0 - - 0.0
05/10:00am 8.0 6.3 4.0 76 1.7 ENE 2 2 1 1 - - 0.0
05/09:30am 6.7 5.0 4.2 84 1.1 ENE 2 4 1 2 - - 0.0
05/09:00am 5.1 2.8 2.6 84 1.0 E 4 6 2 3 - - 0.0
05/08:30am 4.0 0.7 2.4 89 0.6 E 9 11 5 6 - - 0.0
05/08:00am 3.6 0.3 2.4 92 0.5 E 9 11 5 6 - - 0.0
05/07:30am 2.8 -1.0 1.8 93 0.4 E 11 13 6 7 - - 0.0
05/07:00am 2.3 -1.5 1.6 95 0.3 E 11 13 6 7 - - 0.0
05/06:30am 2.8 -0.6 1.8 93 0.4 E 9 11 5 6 - - 0.0
05/06:00am 2.7 -0.1 2.1 96 0.2 E 6 7 3 4 - - 0.0
05/05:30am 2.2 -0.3 1.5 95 0.3 N 4 4 2 2 - - 0.0
05/05:00am 2.1 0.3 1.1 93 0.4 CALM 0 0 0 0 - - 0.0
05/04:30am 2.3 0.4 0.8 90 0.6 CALM 0 0 0 0 - - 0.0
05/04:00am 2.6 0.8 1.0 89 0.6 CALM 0 0 0 0 - - 0.0
05/03:30am 3.8 1.3 1.8 87 0.8 N 4 4 2 2 - - 0.0
05/03:00am 4.7 2.0 2.4 85 0.9 N 6 6 3 3 - - 0.0
05/02:30am 3.9 1.6 2.9 93 0.4 N 4 6 2 3 - - 0.0
05/02:00am 2.6 0.1 1.4 92 0.5 N 4 6 2 3 - - 0.0
05/01:30am 3.6 1.2 2.1 90 0.6 ENE 4 4 2 2 - - 0.0
05/01:00am 2.8 0.2 1.2 89 0.6 ENE 4 6 2 3 - - 0.0
05/12:30am 3.6 1.6 2.1 90 0.6 E 2 6 1 3 - - 0.0
05/12:00am 4.1 1.8 2.6 90 0.6 E 4 6 2 3 - - 0.0
 
Date/Time
EST
Temp
°C
App
Temp
°C
Dew
Point
Rel
Hum
%
Delta-T
°C
Wind Press
QNH
hPa
Press
MSL
hPa
Rain
since 9 am
mm
Dir
 
Spd
km/h
Gust
km/h
Spd
kts
Gust
kts
04/11:30pm 3.4 1.7 1.8 89 0.6 CALM 0 0 0 0 - - 0.0
04/11:00pm 4.6 2.7 2.8 88 0.7 E 2 6 1 3 - - 0.0
04/10:30pm 4.5 2.8 1.7 82 1.1 CALM 0 2 0 1 - - 0.0
04/10:00pm 5.7 3.7 2.5 80 1.3 E 2 2 1 1 - - 0.0
04/09:30pm 5.8 4.3 3.0 82 1.2 CALM 0 0 0 0 - - 0.0
04/09:00pm 5.2 3.6 2.4 82 1.1 CALM 0 2 0 1 - - 0.0
04/08:30pm 6.2 3.8 2.1 75 1.7 E 4 6 2 3 - - 0.0
04/08:00pm 6.5 3.7 2.9 78 1.5 E 7 7 4 4 - - 0.0
04/07:30pm 7.7 5.0 2.8 71 2.1 ESE 6 6 3 3 - - 0.0

Other Formats:

Comma delimited format used in spreadsheet applications
http://www.bom.gov.au/fwo/IDN60801/IDN60801.95705.axf

JavaScript Object Notation format (JSON) in row-major order
http://www.bom.gov.au/fwo/IDN60801/IDN60801.95705.json